sensor_id;sensor_type;location;lat;lon;timestamp;P1;durP1;ratioP1;P2;durP2;ratioP2
67816;SDS011;54614;47.576;7.524;2023-08-07T00:00:22;1.08;;;1.08;;
67816;SDS011;54614;47.576;7.524;2023-08-07T00:02:48;1.00;;;1.00;;
67816;SDS011;54614;47.576;7.524;2023-08-07T00:05:14;1.00;;;1.00;;
67816;SDS011;54614;47.576;7.524;2023-08-07T00:07:41;1.00;;;1.00;;
67816;SDS011;54614;47.576;7.524;2023-08-07T00:10:08;1.13;;;1.02;;
67816;SDS011;54614;47.576;7.524;2023-08-07T00:12:34;0.90;;;0.90;;
67816;SDS011;54614;47.576;7.524;2023-08-07T00:15:01;0.93;;;0.90;;
67816;SDS011;54614;47.576;7.524;2023-08-07T00:17:30;1.17;;;1.08;;
67816;SDS011;54614;47.576;7.524;2023-08-07T00:19:56;1.20;;;1.10;;
67816;SDS011;54614;47.576;7.524;2023-08-07T00:22:22;1.15;;;1.00;;
67816;SDS011;54614;47.576;7.524;2023-08-07T00:24:48;0.90;;;0.90;;
67816;SDS011;54614;47.576;7.524;2023-08-07T00:27:14;0.88;;;0.88;;
67816;SDS011;54614;47.576;7.524;2023-08-07T00:29:40;1.10;;;1.00;;
67816;SDS011;54614;47.576;7.524;2023-08-07T00:32:06;0.85;;;0.85;;
67816;SDS011;54614;47.576;7.524;2023-08-07T00:34:32;0.90;;;0.90;;
67816;SDS011;54614;47.576;7.524;2023-08-07T00:36:58;1.00;;;1.00;;
67816;SDS011;54614;47.576;7.524;2023-08-07T00:39:24;0.90;;;0.90;;
67816;SDS011;54614;47.576;7.524;2023-08-07T00:41:49;0.90;;;0.90;;
67816;SDS011;54614;47.576;7.524;2023-08-07T00:44:15;0.82;;;0.82;;
67816;SDS011;54614;47.576;7.524;2023-08-07T00:46:41;1.00;;;1.00;;
67816;SDS011;54614;47.576;7.524;2023-08-07T00:49:08;0.98;;;0.98;;
67816;SDS011;54614;47.576;7.524;2023-08-07T00:51:37;1.00;;;1.00;;
67816;SDS011;54614;47.576;7.524;2023-08-07T00:54:04;0.88;;;0.88;;
67816;SDS011;54614;47.576;7.524;2023-08-07T00:56:32;1.10;;;1.10;;
67816;SDS011;54614;47.576;7.524;2023-08-07T00:58:59;1.00;;;1.00;;
67816;SDS011;54614;47.576;7.524;2023-08-07T01:01:26;1.10;;;1.10;;
67816;SDS011;54614;47.576;7.524;2023-08-07T01:03:52;1.00;;;1.00;;
67816;SDS011;54614;47.576;7.524;2023-08-07T01:06:18;1.00;;;1.00;;
67816;SDS011;54614;47.576;7.524;2023-08-07T01:08:45;0.90;;;0.90;;
67816;SDS011;54614;47.576;7.524;2023-08-07T01:14:49;0.95;;;0.95;;
67816;SDS011;54614;47.576;7.524;2023-08-07T01:17:22;0.88;;;0.88;;
67816;SDS011;54614;47.576;7.524;2023-08-07T01:19:50;1.00;;;1.00;;
67816;SDS011;54614;47.576;7.524;2023-08-07T01:22:19;1.10;;;1.00;;
67816;SDS011;54614;47.576;7.524;2023-08-07T01:24:47;1.02;;;1.00;;
67816;SDS011;54614;47.576;7.524;2023-08-07T01:29:52;0.98;;;0.90;;
67816;SDS011;54614;47.576;7.524;2023-08-07T01:32:48;0.90;;;0.90;;
67816;SDS011;54614;47.576;7.524;2023-08-07T01:35:43;1.02;;;1.02;;
67816;SDS011;54614;47.576;7.524;2023-08-07T01:38:14;0.93;;;0.93;;
67816;SDS011;54614;47.576;7.524;2023-08-07T01:40:41;0.93;;;0.90;;
67816;SDS011;54614;47.576;7.524;2023-08-07T01:43:08;0.93;;;0.93;;
67816;SDS011;54614;47.576;7.524;2023-08-07T01:45:34;0.90;;;0.90;;
67816;SDS011;54614;47.576;7.524;2023-08-07T01:48:00;1.08;;;1.08;;
67816;SDS011;54614;47.576;7.524;2023-08-07T01:50:26;0.85;;;0.85;;
67816;SDS011;54614;47.576;7.524;2023-08-07T01:52:52;0.90;;;0.90;;
67816;SDS011;54614;47.576;7.524;2023-08-07T01:55:18;0.82;;;0.82;;
67816;SDS011;54614;47.576;7.524;2023-08-07T01:57:45;1.00;;;1.00;;
67816;SDS011;54614;47.576;7.524;2023-08-07T02:00:11;0.80;;;0.80;;
67816;SDS011;54614;47.576;7.524;2023-08-07T02:02:38;0.98;;;0.98;;
67816;SDS011;54614;47.576;7.524;2023-08-07T02:05:04;1.00;;;1.00;;
67816;SDS011;54614;47.576;7.524;2023-08-07T02:07:30;0.93;;;0.93;;
67816;SDS011;54614;47.576;7.524;2023-08-07T02:09:57;1.10;;;1.00;;
67816;SDS011;54614;47.576;7.524;2023-08-07T02:12:23;0.98;;;0.98;;
67816;SDS011;54614;47.576;7.524;2023-08-07T02:14:50;0.90;;;0.90;;
67816;SDS011;54614;47.576;7.524;2023-08-07T02:17:16;1.20;;;1.10;;
67816;SDS011;54614;47.576;7.524;2023-08-07T02:19:42;1.00;;;1.00;;
67816;SDS011;54614;47.576;7.524;2023-08-07T02:22:07;1.00;;;1.00;;
67816;SDS011;54614;47.576;7.524;2023-08-07T02:24:33;0.98;;;0.98;;
67816;SDS011;54614;47.576;7.524;2023-08-07T02:26:59;1.00;;;1.00;;
67816;SDS011;54614;47.576;7.524;2023-08-07T02:29:25;1.15;;;0.93;;
67816;SDS011;54614;47.576;7.524;2023-08-07T02:31:50;1.10;;;1.10;;
67816;SDS011;54614;47.576;7.524;2023-08-07T02:34:16;0.80;;;0.80;;
67816;SDS011;54614;47.576;7.524;2023-08-07T02:36:42;0.90;;;0.90;;
67816;SDS011;54614;47.576;7.524;2023-08-07T02:39:07;0.90;;;0.90;;
67816;SDS011;54614;47.576;7.524;2023-08-07T02:41:33;0.90;;;0.90;;
67816;SDS011;54614;47.576;7.524;2023-08-07T02:43:59;0.93;;;0.93;;
67816;SDS011;54614;47.576;7.524;2023-08-07T02:46:25;0.82;;;0.82;;
67816;SDS011;54614;47.576;7.524;2023-08-07T02:48:50;0.98;;;0.98;;
67816;SDS011;54614;47.576;7.524;2023-08-07T02:51:17;0.90;;;0.90;;
67816;SDS011;54614;47.576;7.524;2023-08-07T02:53:43;0.85;;;0.85;;
67816;SDS011;54614;47.576;7.524;2023-08-07T02:56:09;0.90;;;0.90;;
67816;SDS011;54614;47.576;7.524;2023-08-07T02:58:35;0.80;;;0.80;;
67816;SDS011;54614;47.576;7.524;2023-08-07T03:01:04;1.17;;;1.08;;
67816;SDS011;54614;47.576;7.524;2023-08-07T03:03:33;0.93;;;0.93;;
67816;SDS011;54614;47.576;7.524;2023-08-07T03:06:00;0.93;;;0.93;;
67816;SDS011;54614;47.576;7.524;2023-08-07T03:08:26;0.88;;;0.88;;
67816;SDS011;54614;47.576;7.524;2023-08-07T03:10:52;0.90;;;0.90;;
67816;SDS011;54614;47.576;7.524;2023-08-07T03:13:20;1.00;;;1.00;;
67816;SDS011;54614;47.576;7.524;2023-08-07T03:15:47;0.90;;;0.90;;
67816;SDS011;54614;47.576;7.524;2023-08-07T03:18:15;0.90;;;0.90;;
67816;SDS011;54614;47.576;7.524;2023-08-07T03:20:43;0.90;;;0.90;;
67816;SDS011;54614;47.576;7.524;2023-08-07T03:23:10;0.90;;;0.90;;
67816;SDS011;54614;47.576;7.524;2023-08-07T03:25:36;0.90;;;0.90;;
67816;SDS011;54614;47.576;7.524;2023-08-07T03:28:02;0.80;;;0.80;;
67816;SDS011;54614;47.576;7.524;2023-08-07T03:30:28;0.82;;;0.82;;
67816;SDS011;54614;47.576;7.524;2023-08-07T03:32:54;0.80;;;0.80;;
67816;SDS011;54614;47.576;7.524;2023-08-07T03:53:00;0.90;;;0.90;;
67816;SDS011;54614;47.576;7.524;2023-08-07T03:55:26;0.85;;;0.85;;
67816;SDS011;54614;47.576;7.524;2023-08-07T03:57:52;1.05;;;1.05;;
67816;SDS011;54614;47.576;7.524;2023-08-07T04:00:18;0.90;;;0.90;;
67816;SDS011;54614;47.576;7.524;2023-08-07T04:02:44;5.05;;;1.00;;
67816;SDS011;54614;47.576;7.524;2023-08-07T04:05:10;0.90;;;0.90;;
67816;SDS011;54614;47.576;7.524;2023-08-07T04:07:36;0.95;;;0.93;;
67816;SDS011;54614;47.576;7.524;2023-08-07T04:10:02;0.80;;;0.80;;
67816;SDS011;54614;47.576;7.524;2023-08-07T04:12:28;0.90;;;0.90;;
67816;SDS011;54614;47.576;7.524;2023-08-07T04:14:53;1.00;;;1.00;;
67816;SDS011;54614;47.576;7.524;2023-08-07T04:17:19;0.90;;;0.90;;
67816;SDS011;54614;47.576;7.524;2023-08-07T04:19:45;1.00;;;1.00;;
67816;SDS011;54614;47.576;7.524;2023-08-07T04:22:11;1.38;;;1.08;;
67816;SDS011;54614;47.576;7.524;2023-08-07T04:24:37;0.90;;;0.90;;
67816;SDS011;54614;47.576;7.524;2023-08-07T04:27:02;0.90;;;0.90;;
67816;SDS011;54614;47.576;7.524;2023-08-07T04:29:28;1.52;;;0.93;;
67816;SDS011;54614;47.576;7.524;2023-08-07T04:31:54;1.30;;;1.10;;
67816;SDS011;54614;47.576;7.524;2023-08-07T04:34:20;1.10;;;1.10;;
67816;SDS011;54614;47.576;7.524;2023-08-07T04:36:45;2.50;;;1.05;;
67816;SDS011;54614;47.576;7.524;2023-08-07T04:39:11;1.23;;;1.13;;
67816;SDS011;54614;47.576;7.524;2023-08-07T04:41:38;2.07;;;1.30;;
67816;SDS011;54614;47.576;7.524;2023-08-07T04:44:04;2.63;;;1.50;;
67816;SDS011;54614;47.576;7.524;2023-08-07T04:46:30;3.20;;;1.23;;
67816;SDS011;54614;47.576;7.524;2023-08-07T04:48:56;1.40;;;1.30;;
67816;SDS011;54614;47.576;7.524;2023-08-07T04:51:21;1.37;;;1.30;;
67816;SDS011;54614;47.576;7.524;2023-08-07T04:53:48;3.63;;;1.40;;
67816;SDS011;54614;47.576;7.524;2023-08-07T04:56:15;1.20;;;1.20;;
67816;SDS011;54614;47.576;7.524;2023-08-07T04:58:42;1.30;;;1.25;;
67816;SDS011;54614;47.576;7.524;2023-08-07T05:01:08;2.90;;;1.17;;
67816;SDS011;54614;47.576;7.524;2023-08-07T05:03:34;1.80;;;1.13;;
67816;SDS011;54614;47.576;7.524;2023-08-07T05:06:00;1.30;;;1.30;;
67816;SDS011;54614;47.576;7.524;2023-08-07T05:08:26;1.33;;;1.20;;
67816;SDS011;54614;47.576;7.524;2023-08-07T05:10:53;1.90;;;1.30;;
67816;SDS011;54614;47.576;7.524;2023-08-07T05:13:18;1.30;;;1.30;;
67816;SDS011;54614;47.576;7.524;2023-08-07T05:15:46;1.40;;;1.30;;
67816;SDS011;54614;47.576;7.524;2023-08-07T05:18:15;1.50;;;1.40;;
67816;SDS011;54614;47.576;7.524;2023-08-07T05:20:41;1.80;;;1.30;;
67816;SDS011;54614;47.576;7.524;2023-08-07T05:23:07;1.83;;;1.40;;
67816;SDS011;54614;47.576;7.524;2023-08-07T05:25:34;2.80;;;1.40;;
67816;SDS011;54614;47.576;7.524;2023-08-07T05:27:59;6.67;;;1.80;;
67816;SDS011;54614;47.576;7.524;2023-08-07T05:30:25;5.70;;;1.90;;
67816;SDS011;54614;47.576;7.524;2023-08-07T05:32:51;3.90;;;1.70;;
67816;SDS011;54614;47.576;7.524;2023-08-07T05:35:17;4.57;;;1.60;;
67816;SDS011;54614;47.576;7.524;2023-08-07T05:37:45;7.87;;;1.63;;
67816;SDS011;54614;47.576;7.524;2023-08-07T05:40:10;3.40;;;1.60;;
67816;SDS011;54614;47.576;7.524;2023-08-07T05:42:39;2.47;;;1.50;;
67816;SDS011;54614;47.576;7.524;2023-08-07T05:45:06;1.90;;;1.30;;
67816;SDS011;54614;47.576;7.524;2023-08-07T05:47:33;2.93;;;1.50;;
67816;SDS011;54614;47.576;7.524;2023-08-07T05:49:59;3.27;;;1.40;;
67816;SDS011;54614;47.576;7.524;2023-08-07T05:52:24;2.50;;;1.40;;
67816;SDS011;54614;47.576;7.524;2023-08-07T05:54:50;2.50;;;1.30;;
67816;SDS011;54614;47.576;7.524;2023-08-07T05:57:17;1.93;;;1.30;;
67816;SDS011;54614;47.576;7.524;2023-08-07T05:59:43;1.50;;;1.40;;
67816;SDS011;54614;47.576;7.524;2023-08-07T06:02:09;1.33;;;1.23;;
67816;SDS011;54614;47.576;7.524;2023-08-07T06:04:38;1.20;;;1.10;;
67816;SDS011;54614;47.576;7.524;2023-08-07T06:07:04;1.37;;;1.27;;
67816;SDS011;54614;47.576;7.524;2023-08-07T06:09:30;1.80;;;1.48;;
67816;SDS011;54614;47.576;7.524;2023-08-07T06:11:56;1.37;;;1.27;;
67816;SDS011;54614;47.576;7.524;2023-08-07T06:14:22;2.03;;;1.40;;
67816;SDS011;54614;47.576;7.524;2023-08-07T06:16:50;2.33;;;1.40;;
67816;SDS011;54614;47.576;7.524;2023-08-07T06:19:16;1.58;;;1.33;;
67816;SDS011;54614;47.576;7.524;2023-08-07T06:21:42;1.73;;;1.43;;
67816;SDS011;54614;47.576;7.524;2023-08-07T06:24:08;1.50;;;1.20;;
67816;SDS011;54614;47.576;7.524;2023-08-07T06:26:34;1.33;;;1.23;;
67816;SDS011;54614;47.576;7.524;2023-08-07T06:29:00;1.47;;;1.20;;
67816;SDS011;54614;47.576;7.524;2023-08-07T06:31:26;1.83;;;1.23;;
67816;SDS011;54614;47.576;7.524;2023-08-07T06:33:51;1.37;;;1.23;;
67816;SDS011;54614;47.576;7.524;2023-08-07T06:36:17;1.10;;;1.10;;
67816;SDS011;54614;47.576;7.524;2023-08-07T06:38:43;2.20;;;1.35;;
67816;SDS011;54614;47.576;7.524;2023-08-07T06:41:09;1.70;;;1.20;;
67816;SDS011;54614;47.576;7.524;2023-08-07T06:43:34;1.30;;;1.20;;
67816;SDS011;54614;47.576;7.524;2023-08-07T06:46:00;1.50;;;1.27;;
67816;SDS011;54614;47.576;7.524;2023-08-07T06:48:26;1.85;;;1.30;;
67816;SDS011;54614;47.576;7.524;2023-08-07T06:50:52;1.30;;;1.20;;
67816;SDS011;54614;47.576;7.524;2023-08-07T06:53:17;1.10;;;1.10;;
67816;SDS011;54614;47.576;7.524;2023-08-07T06:55:44;1.77;;;1.20;;
67816;SDS011;54614;47.576;7.524;2023-08-07T06:58:10;1.67;;;1.20;;
67816;SDS011;54614;47.576;7.524;2023-08-07T07:00:36;1.35;;;1.27;;
67816;SDS011;54614;47.576;7.524;2023-08-07T07:03:02;1.47;;;1.20;;
67816;SDS011;54614;47.576;7.524;2023-08-07T07:05:29;2.20;;;1.30;;
67816;SDS011;54614;47.576;7.524;2023-08-07T07:07:57;1.38;;;1.20;;
67816;SDS011;54614;47.576;7.524;2023-08-07T07:10:23;1.50;;;1.20;;
67816;SDS011;54614;47.576;7.524;2023-08-07T07:12:49;1.83;;;1.40;;
67816;SDS011;54614;47.576;7.524;2023-08-07T07:15:14;1.13;;;1.13;;
67816;SDS011;54614;47.576;7.524;2023-08-07T07:17:40;1.23;;;1.13;;
67816;SDS011;54614;47.576;7.524;2023-08-07T07:20:06;1.83;;;1.10;;
67816;SDS011;54614;47.576;7.524;2023-08-07T07:22:36;1.33;;;1.02;;
67816;SDS011;54614;47.576;7.524;2023-08-07T07:25:01;1.30;;;1.20;;
67816;SDS011;54614;47.576;7.524;2023-08-07T07:27:28;1.02;;;1.02;;
67816;SDS011;54614;47.576;7.524;2023-08-07T07:29:54;1.20;;;1.10;;
67816;SDS011;54614;47.576;7.524;2023-08-07T07:32:19;1.33;;;1.23;;
67816;SDS011;54614;47.576;7.524;2023-08-07T07:34:45;1.20;;;1.20;;
67816;SDS011;54614;47.576;7.524;2023-08-07T07:37:11;1.13;;;1.10;;
67816;SDS011;54614;47.576;7.524;2023-08-07T07:39:39;1.50;;;1.10;;
67816;SDS011;54614;47.576;7.524;2023-08-07T07:42:05;1.30;;;1.20;;
67816;SDS011;54614;47.576;7.524;2023-08-07T07:44:32;1.20;;;1.10;;
67816;SDS011;54614;47.576;7.524;2023-08-07T07:47:00;1.57;;;1.13;;
67816;SDS011;54614;47.576;7.524;2023-08-07T07:49:26;1.00;;;1.00;;
67816;SDS011;54614;47.576;7.524;2023-08-07T07:51:51;1.30;;;1.20;;
67816;SDS011;54614;47.576;7.524;2023-08-07T07:54:17;1.17;;;1.17;;
67816;SDS011;54614;47.576;7.524;2023-08-07T07:56:43;0.90;;;0.90;;
67816;SDS011;54614;47.576;7.524;2023-08-07T07:59:08;1.10;;;1.10;;
67816;SDS011;54614;47.576;7.524;2023-08-07T08:01:34;1.03;;;1.03;;
67816;SDS011;54614;47.576;7.524;2023-08-07T08:04:00;1.00;;;1.00;;
67816;SDS011;54614;47.576;7.524;2023-08-07T08:06:26;1.20;;;1.10;;
67816;SDS011;54614;47.576;7.524;2023-08-07T08:08:52;2.00;;;1.00;;
67816;SDS011;54614;47.576;7.524;2023-08-07T08:11:18;1.48;;;1.05;;
67816;SDS011;54614;47.576;7.524;2023-08-07T08:13:44;1.10;;;1.10;;
67816;SDS011;54614;47.576;7.524;2023-08-07T08:16:09;1.20;;;1.20;;
67816;SDS011;54614;47.576;7.524;2023-08-07T08:18:35;1.03;;;1.00;;
67816;SDS011;54614;47.576;7.524;2023-08-07T08:21:01;1.10;;;1.00;;
67816;SDS011;54614;47.576;7.524;2023-08-07T08:23:26;1.00;;;1.00;;
67816;SDS011;54614;47.576;7.524;2023-08-07T08:25:52;1.00;;;1.00;;
67816;SDS011;54614;47.576;7.524;2023-08-07T08:28:18;1.02;;;1.02;;
67816;SDS011;54614;47.576;7.524;2023-08-07T08:30:44;1.10;;;1.10;;
67816;SDS011;54614;47.576;7.524;2023-08-07T08:33:09;1.67;;;0.97;;
67816;SDS011;54614;47.576;7.524;2023-08-07T08:35:38;1.20;;;1.10;;
67816;SDS011;54614;47.576;7.524;2023-08-07T08:38:04;1.30;;;1.20;;
67816;SDS011;54614;47.576;7.524;2023-08-07T08:40:30;1.00;;;1.00;;
67816;SDS011;54614;47.576;7.524;2023-08-07T08:42:57;0.97;;;0.97;;
67816;SDS011;54614;47.576;7.524;2023-08-07T08:45:26;1.00;;;1.00;;
67816;SDS011;54614;47.576;7.524;2023-08-07T08:47:59;0.90;;;0.90;;
67816;SDS011;54614;47.576;7.524;2023-08-07T08:50:27;1.00;;;1.00;;
67816;SDS011;54614;47.576;7.524;2023-08-07T08:52:54;0.90;;;0.90;;
67816;SDS011;54614;47.576;7.524;2023-08-07T08:55:21;0.80;;;0.80;;
67816;SDS011;54614;47.576;7.524;2023-08-07T08:57:48;1.20;;;1.13;;
67816;SDS011;54614;47.576;7.524;2023-08-07T09:00:18;0.90;;;0.90;;
67816;SDS011;54614;47.576;7.524;2023-08-07T09:02:48;1.00;;;1.00;;
67816;SDS011;54614;47.576;7.524;2023-08-07T09:05:15;0.90;;;0.90;;
67816;SDS011;54614;47.576;7.524;2023-08-07T09:07:47;1.03;;;0.90;;
67816;SDS011;54614;47.576;7.524;2023-08-07T09:10:14;1.17;;;1.00;;
67816;SDS011;54614;47.576;7.524;2023-08-07T09:12:42;1.00;;;1.00;;
67816;SDS011;54614;47.576;7.524;2023-08-07T09:15:19;0.90;;;0.90;;
67816;SDS011;54614;47.576;7.524;2023-08-07T09:17:48;1.10;;;1.00;;
67816;SDS011;54614;47.576;7.524;2023-08-07T09:20:17;1.10;;;1.10;;
67816;SDS011;54614;47.576;7.524;2023-08-07T09:22:44;0.93;;;0.93;;
67816;SDS011;54614;47.576;7.524;2023-08-07T09:25:11;0.80;;;0.80;;
67816;SDS011;54614;47.576;7.524;2023-08-07T09:27:37;1.00;;;1.00;;
67816;SDS011;54614;47.576;7.524;2023-08-07T09:30:04;1.07;;;1.00;;
67816;SDS011;54614;47.576;7.524;2023-08-07T09:32:34;0.80;;;0.80;;
67816;SDS011;54614;47.576;7.524;2023-08-07T09:35:05;0.90;;;0.90;;
67816;SDS011;54614;47.576;7.524;2023-08-07T09:37:33;0.90;;;0.90;;
67816;SDS011;54614;47.576;7.524;2023-08-07T09:40:02;1.00;;;1.00;;
67816;SDS011;54614;47.576;7.524;2023-08-07T09:42:30;0.90;;;0.90;;
67816;SDS011;54614;47.576;7.524;2023-08-07T09:44:58;0.90;;;0.90;;
67816;SDS011;54614;47.576;7.524;2023-08-07T09:47:27;1.13;;;1.00;;
67816;SDS011;54614;47.576;7.524;2023-08-07T09:49:54;0.80;;;0.80;;
67816;SDS011;54614;47.576;7.524;2023-08-07T09:52:21;0.85;;;0.85;;
67816;SDS011;54614;47.576;7.524;2023-08-07T09:54:49;0.90;;;0.90;;
67816;SDS011;54614;47.576;7.524;2023-08-07T09:57:15;1.00;;;1.00;;
67816;SDS011;54614;47.576;7.524;2023-08-07T09:59:41;0.90;;;0.90;;
67816;SDS011;54614;47.576;7.524;2023-08-07T10:02:07;0.90;;;0.90;;
67816;SDS011;54614;47.576;7.524;2023-08-07T10:04:34;1.10;;;1.00;;
67816;SDS011;54614;47.576;7.524;2023-08-07T10:07:01;0.90;;;0.90;;
67816;SDS011;54614;47.576;7.524;2023-08-07T10:09:27;0.90;;;0.90;;
67816;SDS011;54614;47.576;7.524;2023-08-07T10:11:53;0.93;;;0.93;;
67816;SDS011;54614;47.576;7.524;2023-08-07T10:14:20;0.90;;;0.90;;
67816;SDS011;54614;47.576;7.524;2023-08-07T10:16:48;0.93;;;0.93;;
67816;SDS011;54614;47.576;7.524;2023-08-07T10:19:16;0.90;;;0.90;;
67816;SDS011;54614;47.576;7.524;2023-08-07T10:21:42;0.80;;;0.80;;
67816;SDS011;54614;47.576;7.524;2023-08-07T10:24:10;0.90;;;0.90;;
67816;SDS011;54614;47.576;7.524;2023-08-07T10:26:38;0.90;;;0.90;;
67816;SDS011;54614;47.576;7.524;2023-08-07T10:29:12;0.80;;;0.80;;
67816;SDS011;54614;47.576;7.524;2023-08-07T10:31:42;0.87;;;0.87;;
67816;SDS011;54614;47.576;7.524;2023-08-07T10:34:10;0.90;;;0.90;;
67816;SDS011;54614;47.576;7.524;2023-08-07T10:36:37;1.00;;;1.00;;
67816;SDS011;54614;47.576;7.524;2023-08-07T10:39:06;1.00;;;1.00;;
67816;SDS011;54614;47.576;7.524;2023-08-07T10:41:55;0.80;;;0.80;;
67816;SDS011;54614;47.576;7.524;2023-08-07T10:44:21;1.00;;;1.00;;
67816;SDS011;54614;47.576;7.524;2023-08-07T10:52:09;0.80;;;0.80;;
67816;SDS011;54614;47.576;7.524;2023-08-07T10:54:46;0.90;;;0.90;;
67816;SDS011;54614;47.576;7.524;2023-08-07T10:57:15;1.00;;;1.00;;
67816;SDS011;54614;47.576;7.524;2023-08-07T10:59:44;0.90;;;0.90;;
67816;SDS011;54614;47.576;7.524;2023-08-07T11:02:31;0.90;;;0.90;;
67816;SDS011;54614;47.576;7.524;2023-08-07T11:04:59;0.90;;;0.90;;
67816;SDS011;54614;47.576;7.524;2023-08-07T11:07:26;0.80;;;0.80;;
67816;SDS011;54614;47.576;7.524;2023-08-07T11:09:55;1.00;;;1.00;;
67816;SDS011;54614;47.576;7.524;2023-08-07T11:12:25;1.00;;;1.00;;
67816;SDS011;54614;47.576;7.524;2023-08-07T11:14:53;1.00;;;1.00;;
67816;SDS011;54614;47.576;7.524;2023-08-07T11:17:25;1.00;;;1.00;;
67816;SDS011;54614;47.576;7.524;2023-08-07T11:19:53;0.95;;;0.95;;
67816;SDS011;54614;47.576;7.524;2023-08-07T11:22:21;1.00;;;1.00;;
67816;SDS011;54614;47.576;7.524;2023-08-07T11:24:47;0.87;;;0.87;;
67816;SDS011;54614;47.576;7.524;2023-08-07T11:27:14;0.90;;;0.90;;
67816;SDS011;54614;47.576;7.524;2023-08-07T11:29:39;0.90;;;0.90;;
67816;SDS011;54614;47.576;7.524;2023-08-07T11:32:05;0.90;;;0.90;;
67816;SDS011;54614;47.576;7.524;2023-08-07T11:34:33;0.80;;;0.80;;
67816;SDS011;54614;47.576;7.524;2023-08-07T11:36:58;0.85;;;0.85;;
67816;SDS011;54614;47.576;7.524;2023-08-07T11:39:25;1.00;;;1.00;;
67816;SDS011;54614;47.576;7.524;2023-08-07T11:41:51;1.58;;;1.00;;
67816;SDS011;54614;47.576;7.524;2023-08-07T11:44:20;0.90;;;0.90;;
67816;SDS011;54614;47.576;7.524;2023-08-07T11:46:47;0.90;;;0.90;;
67816;SDS011;54614;47.576;7.524;2023-08-07T11:49:15;0.80;;;0.80;;
67816;SDS011;54614;47.576;7.524;2023-08-07T11:51:42;0.93;;;0.93;;
67816;SDS011;54614;47.576;7.524;2023-08-07T11:54:13;0.80;;;0.80;;
67816;SDS011;54614;47.576;7.524;2023-08-07T11:56:41;0.90;;;0.90;;
67816;SDS011;54614;47.576;7.524;2023-08-07T11:59:08;0.80;;;0.80;;
67816;SDS011;54614;47.576;7.524;2023-08-07T12:01:36;0.90;;;0.90;;
67816;SDS011;54614;47.576;7.524;2023-08-07T12:06:30;0.93;;;0.93;;
67816;SDS011;54614;47.576;7.524;2023-08-07T12:08:57;0.70;;;0.70;;
67816;SDS011;54614;47.576;7.524;2023-08-07T12:11:24;0.90;;;0.90;;
67816;SDS011;54614;47.576;7.524;2023-08-07T12:13:50;0.90;;;0.90;;
67816;SDS011;54614;47.576;7.524;2023-08-07T12:16:16;0.80;;;0.80;;
67816;SDS011;54614;47.576;7.524;2023-08-07T12:18:46;1.10;;;1.00;;
67816;SDS011;54614;47.576;7.524;2023-08-07T12:21:18;0.87;;;0.87;;
67816;SDS011;54614;47.576;7.524;2023-08-07T12:23:48;0.90;;;0.90;;
67816;SDS011;54614;47.576;7.524;2023-08-07T12:26:16;0.82;;;0.82;;
67816;SDS011;54614;47.576;7.524;2023-08-07T12:28:43;0.80;;;0.80;;
67816;SDS011;54614;47.576;7.524;2023-08-07T12:31:09;0.73;;;0.73;;
67816;SDS011;54614;47.576;7.524;2023-08-07T12:33:35;0.80;;;0.80;;
67816;SDS011;54614;47.576;7.524;2023-08-07T12:36:01;0.75;;;0.75;;
67816;SDS011;54614;47.576;7.524;2023-08-07T12:38:27;0.80;;;0.80;;
67816;SDS011;54614;47.576;7.524;2023-08-07T12:40:54;0.87;;;0.87;;
67816;SDS011;54614;47.576;7.524;2023-08-07T12:43:20;0.80;;;0.80;;
67816;SDS011;54614;47.576;7.524;2023-08-07T12:45:46;0.90;;;0.90;;
67816;SDS011;54614;47.576;7.524;2023-08-07T12:48:12;0.80;;;0.80;;
67816;SDS011;54614;47.576;7.524;2023-08-07T12:50:39;0.73;;;0.73;;
67816;SDS011;54614;47.576;7.524;2023-08-07T12:53:05;1.00;;;1.00;;
67816;SDS011;54614;47.576;7.524;2023-08-07T12:55:32;0.90;;;0.90;;
67816;SDS011;54614;47.576;7.524;2023-08-07T12:57:59;0.73;;;0.73;;
67816;SDS011;54614;47.576;7.524;2023-08-07T13:00:25;0.80;;;0.80;;
67816;SDS011;54614;47.576;7.524;2023-08-07T13:02:51;0.80;;;0.80;;
67816;SDS011;54614;47.576;7.524;2023-08-07T13:05:19;0.90;;;0.90;;
67816;SDS011;54614;47.576;7.524;2023-08-07T13:07:47;0.90;;;0.90;;
67816;SDS011;54614;47.576;7.524;2023-08-07T13:10:14;0.80;;;0.80;;
67816;SDS011;54614;47.576;7.524;2023-08-07T13:12:42;0.90;;;0.90;;
67816;SDS011;54614;47.576;7.524;2023-08-07T13:15:12;0.80;;;0.80;;
67816;SDS011;54614;47.576;7.524;2023-08-07T13:17:40;0.80;;;0.80;;
67816;SDS011;54614;47.576;7.524;2023-08-07T13:20:08;0.70;;;0.70;;
67816;SDS011;54614;47.576;7.524;2023-08-07T13:22:38;0.80;;;0.80;;
67816;SDS011;54614;47.576;7.524;2023-08-07T13:25:10;0.80;;;0.80;;
67816;SDS011;54614;47.576;7.524;2023-08-07T13:27:37;0.80;;;0.80;;
67816;SDS011;54614;47.576;7.524;2023-08-07T13:30:04;0.90;;;0.90;;
67816;SDS011;54614;47.576;7.524;2023-08-07T13:32:32;0.80;;;0.80;;
67816;SDS011;54614;47.576;7.524;2023-08-07T13:34:58;0.90;;;0.90;;
67816;SDS011;54614;47.576;7.524;2023-08-07T13:37:23;0.80;;;0.80;;
67816;SDS011;54614;47.576;7.524;2023-08-07T13:39:49;1.00;;;1.00;;
67816;SDS011;54614;47.576;7.524;2023-08-07T13:42:17;0.90;;;0.90;;
67816;SDS011;54614;47.576;7.524;2023-08-07T13:44:43;0.70;;;0.70;;
67816;SDS011;54614;47.576;7.524;2023-08-07T13:47:09;0.70;;;0.70;;
67816;SDS011;54614;47.576;7.524;2023-08-07T13:49:36;0.77;;;0.77;;
67816;SDS011;54614;47.576;7.524;2023-08-07T13:52:03;0.80;;;0.80;;
67816;SDS011;54614;47.576;7.524;2023-08-07T13:54:29;0.90;;;0.90;;
67816;SDS011;54614;47.576;7.524;2023-08-07T13:56:54;0.80;;;0.80;;
67816;SDS011;54614;47.576;7.524;2023-08-07T13:59:20;0.90;;;0.90;;
67816;SDS011;54614;47.576;7.524;2023-08-07T14:01:46;0.80;;;0.80;;
67816;SDS011;54614;47.576;7.524;2023-08-07T14:04:12;0.83;;;0.83;;
67816;SDS011;54614;47.576;7.524;2023-08-07T14:06:39;0.90;;;0.90;;
67816;SDS011;54614;47.576;7.524;2023-08-07T14:09:08;0.80;;;0.80;;
67816;SDS011;54614;47.576;7.524;2023-08-07T14:11:34;0.80;;;0.80;;
67816;SDS011;54614;47.576;7.524;2023-08-07T14:14:00;0.80;;;0.80;;
67816;SDS011;54614;47.576;7.524;2023-08-07T14:16:26;0.70;;;0.70;;
67816;SDS011;54614;47.576;7.524;2023-08-07T14:18:52;0.90;;;0.90;;
67816;SDS011;54614;47.576;7.524;2023-08-07T14:21:18;0.90;;;0.90;;
67816;SDS011;54614;47.576;7.524;2023-08-07T14:23:44;0.80;;;0.80;;
67816;SDS011;54614;47.576;7.524;2023-08-07T14:26:12;0.77;;;0.77;;
67816;SDS011;54614;47.576;7.524;2023-08-07T14:28:38;0.67;;;0.67;;
67816;SDS011;54614;47.576;7.524;2023-08-07T14:31:06;0.90;;;0.90;;
67816;SDS011;54614;47.576;7.524;2023-08-07T14:33:33;0.90;;;0.90;;
67816;SDS011;54614;47.576;7.524;2023-08-07T14:36:00;0.93;;;0.93;;
67816;SDS011;54614;47.576;7.524;2023-08-07T14:38:26;0.80;;;0.80;;
67816;SDS011;54614;47.576;7.524;2023-08-07T14:40:54;0.73;;;0.73;;
67816;SDS011;54614;47.576;7.524;2023-08-07T14:43:21;0.90;;;0.90;;
67816;SDS011;54614;47.576;7.524;2023-08-07T14:45:47;0.80;;;0.80;;
67816;SDS011;54614;47.576;7.524;2023-08-07T14:48:13;0.90;;;0.90;;
67816;SDS011;54614;47.576;7.524;2023-08-07T14:50:40;0.67;;;0.67;;
67816;SDS011;54614;47.576;7.524;2023-08-07T14:53:07;0.80;;;0.80;;
67816;SDS011;54614;47.576;7.524;2023-08-07T14:55:33;0.70;;;0.70;;
67816;SDS011;54614;47.576;7.524;2023-08-07T14:57:59;0.85;;;0.85;;
67816;SDS011;54614;47.576;7.524;2023-08-07T15:00:25;0.80;;;0.80;;
67816;SDS011;54614;47.576;7.524;2023-08-07T15:02:50;0.80;;;0.80;;
67816;SDS011;54614;47.576;7.524;2023-08-07T15:05:16;0.80;;;0.80;;
67816;SDS011;54614;47.576;7.524;2023-08-07T15:07:42;0.70;;;0.70;;
67816;SDS011;54614;47.576;7.524;2023-08-07T15:10:08;0.80;;;0.80;;
67816;SDS011;54614;47.576;7.524;2023-08-07T15:12:34;0.90;;;0.90;;
67816;SDS011;54614;47.576;7.524;2023-08-07T15:15:00;0.70;;;0.70;;
67816;SDS011;54614;47.576;7.524;2023-08-07T15:17:27;0.80;;;0.80;;